Whitten, Iowa
Current Conditions -  °F | °C
As of 6:53 AM on Wednesday 26 Nov 2014 (Local Time) from KMIW Reporting Station
Overcast Overcast  
Wind Chill: 14°   Ceiling: 5000
Heat Index: 26°   Visibility: 10mi
Dew Point: 21°   Wind: 16mph
Humidity: 81%   Direction: 100°E
Pressure: 29.93"   Gusts: NA
Location:  42.26°N, 93.01°W
Report Text: KMIW 261253Z AUTO 10014KT 10SM OVC050 M03/M06 A2993 RMK AO2 SNB1156E07 SLP148 P0000 T10331061
Loading
Personal Weather Stations






























Interactive Weather Map New forecast layout! Learn more

10-Day Weather Forecast

Advertisements
Track Severe Weather on mobile